sensor_id;sensor_type;location;lat;lon;timestamp;temperature;humidity
3794;DHT22;1912;51.358;12.282;2022-08-21T00:02:01;18.80;1.00
3794;DHT22;1912;51.358;12.282;2022-08-21T00:04:27;18.80;1.00
3794;DHT22;1912;51.358;12.282;2022-08-21T00:06:52;18.80;1.00
3794;DHT22;1912;51.358;12.282;2022-08-21T00:09:19;18.80;1.00
3794;DHT22;1912;51.358;12.282;2022-08-21T00:11:46;18.80;1.00
3794;DHT22;1912;51.358;12.282;2022-08-21T00:14:13;18.70;1.00
3794;DHT22;1912;51.358;12.282;2022-08-21T00:16:39;18.70;1.00
3794;DHT22;1912;51.358;12.282;2022-08-21T00:19:06;18.70;1.00
3794;DHT22;1912;51.358;12.282;2022-08-21T00:21:34;18.70;1.00
3794;DHT22;1912;51.358;12.282;2022-08-21T00:24:00;18.70;1.00
3794;DHT22;1912;51.358;12.282;2022-08-21T00:26:26;18.70;1.00
3794;DHT22;1912;51.358;12.282;2022-08-21T00:28:52;18.70;1.00
3794;DHT22;1912;51.358;12.282;2022-08-21T00:31:18;18.80;1.00
3794;DHT22;1912;51.358;12.282;2022-08-21T00:33:44;18.80;1.00
3794;DHT22;1912;51.358;12.282;2022-08-21T00:36:11;18.80;1.00
3794;DHT22;1912;51.358;12.282;2022-08-21T00:38:37;18.80;1.00
3794;DHT22;1912;51.358;12.282;2022-08-21T00:41:06;18.70;1.00
3794;DHT22;1912;51.358;12.282;2022-08-21T00:43:34;18.70;1.00
3794;DHT22;1912;51.358;12.282;2022-08-21T00:46:04;18.70;1.00
3794;DHT22;1912;51.358;12.282;2022-08-21T00:48:31;18.70;1.00
3794;DHT22;1912;51.358;12.282;2022-08-21T00:51:09;18.60;1.00
3794;DHT22;1912;51.358;12.282;2022-08-21T00:53:40;18.60;1.00
3794;DHT22;1912;51.358;12.282;2022-08-21T00:56:09;18.60;1.00
3794;DHT22;1912;51.358;12.282;2022-08-21T00:58:37;18.50;1.00
3794;DHT22;1912;51.358;12.282;2022-08-21T01:01:06;18.50;1.00
3794;DHT22;1912;51.358;12.282;2022-08-21T01:03:33;18.50;1.00
3794;DHT22;1912;51.358;12.282;2022-08-21T01:06:02;18.50;1.00
3794;DHT22;1912;51.358;12.282;2022-08-21T01:08:29;18.50;1.00
3794;DHT22;1912;51.358;12.282;2022-08-21T01:10:57;18.50;1.00
3794;DHT22;1912;51.358;12.282;2022-08-21T01:13:25;18.50;1.00
3794;DHT22;1912;51.358;12.282;2022-08-21T01:15:54;18.50;1.00
3794;DHT22;1912;51.358;12.282;2022-08-21T01:18:22;18.50;1.00
3794;DHT22;1912;51.358;12.282;2022-08-21T01:23:37;18.60;1.00
3794;DHT22;1912;51.358;12.282;2022-08-21T01:26:05;18.60;1.00
3794;DHT22;1912;51.358;12.282;2022-08-21T01:28:34;18.60;1.00
3794;DHT22;1912;51.358;12.282;2022-08-21T01:31:05;18.60;1.00
3794;DHT22;1912;51.358;12.282;2022-08-21T01:33:33;18.60;1.00
3794;DHT22;1912;51.358;12.282;2022-08-21T01:35:58;18.60;1.00
3794;DHT22;1912;51.358;12.282;2022-08-21T01:38:24;18.60;1.00
3794;DHT22;1912;51.358;12.282;2022-08-21T01:40:50;18.60;1.00
3794;DHT22;1912;51.358;12.282;2022-08-21T01:43:16;18.60;1.00
3794;DHT22;1912;51.358;12.282;2022-08-21T01:45:42;18.60;1.00
3794;DHT22;1912;51.358;12.282;2022-08-21T01:48:07;18.60;1.00
3794;DHT22;1912;51.358;12.282;2022-08-21T01:50:33;18.60;1.00
3794;DHT22;1912;51.358;12.282;2022-08-21T01:52:59;18.70;1.00
3794;DHT22;1912;51.358;12.282;2022-08-21T01:55:24;18.60;1.00
3794;DHT22;1912;51.358;12.282;2022-08-21T01:57:50;18.70;1.00
3794;DHT22;1912;51.358;12.282;2022-08-21T02:00:18;18.70;1.00
3794;DHT22;1912;51.358;12.282;2022-08-21T02:02:45;18.70;1.00
3794;DHT22;1912;51.358;12.282;2022-08-21T02:05:12;18.70;1.00
3794;DHT22;1912;51.358;12.282;2022-08-21T02:07:43;18.60;1.00
3794;DHT22;1912;51.358;12.282;2022-08-21T02:10:17;18.60;1.00
3794;DHT22;1912;51.358;12.282;2022-08-21T02:12:45;18.60;1.00
3794;DHT22;1912;51.358;12.282;2022-08-21T02:15:11;18.60;1.00
3794;DHT22;1912;51.358;12.282;2022-08-21T02:17:43;18.60;1.00
3794;DHT22;1912;51.358;12.282;2022-08-21T02:20:23;18.60;1.00
3794;DHT22;1912;51.358;12.282;2022-08-21T02:22:54;18.60;1.00
3794;DHT22;1912;51.358;12.282;2022-08-21T02:25:22;18.60;1.00
3794;DHT22;1912;51.358;12.282;2022-08-21T02:27:49;18.60;1.00
3794;DHT22;1912;51.358;12.282;2022-08-21T02:30:19;18.50;1.00
3794;DHT22;1912;51.358;12.282;2022-08-21T02:32:47;18.50;1.00
3794;DHT22;1912;51.358;12.282;2022-08-21T02:35:13;18.50;1.00
3794;DHT22;1912;51.358;12.282;2022-08-21T02:37:50;18.50;1.00
3794;DHT22;1912;51.358;12.282;2022-08-21T02:40:21;18.50;1.00
3794;DHT22;1912;51.358;12.282;2022-08-21T02:42:48;18.50;1.00
3794;DHT22;1912;51.358;12.282;2022-08-21T02:45:14;18.50;1.00
3794;DHT22;1912;51.358;12.282;2022-08-21T02:47:52;18.40;1.00
3794;DHT22;1912;51.358;12.282;2022-08-21T02:50:25;18.50;1.00
3794;DHT22;1912;51.358;12.282;2022-08-21T02:52:54;18.40;1.00
3794;DHT22;1912;51.358;12.282;2022-08-21T02:55:22;18.40;1.00
3794;DHT22;1912;51.358;12.282;2022-08-21T02:57:50;18.40;1.00
3794;DHT22;1912;51.358;12.282;2022-08-21T03:00:16;18.30;1.00
3794;DHT22;1912;51.358;12.282;2022-08-21T03:02:42;18.30;1.00
3794;DHT22;1912;51.358;12.282;2022-08-21T03:05:09;18.20;1.00
3794;DHT22;1912;51.358;12.282;2022-08-21T03:07:37;18.20;1.00
3794;DHT22;1912;51.358;12.282;2022-08-21T03:10:03;18.10;1.00
3794;DHT22;1912;51.358;12.282;2022-08-21T03:12:30;18.10;1.00
3794;DHT22;1912;51.358;12.282;2022-08-21T03:14:56;18.10;1.00
3794;DHT22;1912;51.358;12.282;2022-08-21T03:17:22;18.10;1.00
3794;DHT22;1912;51.358;12.282;2022-08-21T03:19:47;18.10;1.00
3794;DHT22;1912;51.358;12.282;2022-08-21T03:22:13;18.10;1.00
3794;DHT22;1912;51.358;12.282;2022-08-21T03:24:38;18.20;1.00
3794;DHT22;1912;51.358;12.282;2022-08-21T03:27:04;18.20;1.00
3794;DHT22;1912;51.358;12.282;2022-08-21T03:29:30;18.20;1.00
3794;DHT22;1912;51.358;12.282;2022-08-21T03:31:55;18.20;1.00
3794;DHT22;1912;51.358;12.282;2022-08-21T03:34:21;18.20;1.00
3794;DHT22;1912;51.358;12.282;2022-08-21T03:36:48;18.20;1.00
3794;DHT22;1912;51.358;12.282;2022-08-21T03:39:15;18.10;1.00
3794;DHT22;1912;51.358;12.282;2022-08-21T03:41:41;18.20;1.00
3794;DHT22;1912;51.358;12.282;2022-08-21T03:44:07;18.10;1.00
3794;DHT22;1912;51.358;12.282;2022-08-21T03:46:33;18.10;1.00
3794;DHT22;1912;51.358;12.282;2022-08-21T03:48:59;18.10;1.00
3794;DHT22;1912;51.358;12.282;2022-08-21T03:51:25;18.10;1.00
3794;DHT22;1912;51.358;12.282;2022-08-21T03:53:51;18.10;1.00
3794;DHT22;1912;51.358;12.282;2022-08-21T03:56:17;18.00;1.00
3794;DHT22;1912;51.358;12.282;2022-08-21T03:58:43;18.00;1.00
3794;DHT22;1912;51.358;12.282;2022-08-21T04:01:10;18.00;1.00
3794;DHT22;1912;51.358;12.282;2022-08-21T04:03:36;18.00;1.00
3794;DHT22;1912;51.358;12.282;2022-08-21T04:06:03;18.00;1.00
3794;DHT22;1912;51.358;12.282;2022-08-21T04:08:29;18.00;1.00
3794;DHT22;1912;51.358;12.282;2022-08-21T04:10:56;18.00;1.00
3794;DHT22;1912;51.358;12.282;2022-08-21T04:13:23;17.90;1.00
3794;DHT22;1912;51.358;12.282;2022-08-21T04:15:50;18.00;1.00
3794;DHT22;1912;51.358;12.282;2022-08-21T04:18:16;17.90;1.00
3794;DHT22;1912;51.358;12.282;2022-08-21T04:20:43;17.90;1.00
3794;DHT22;1912;51.358;12.282;2022-08-21T04:23:09;17.90;1.00
3794;DHT22;1912;51.358;12.282;2022-08-21T04:25:35;17.90;1.00
3794;DHT22;1912;51.358;12.282;2022-08-21T04:28:01;17.80;1.00
3794;DHT22;1912;51.358;12.282;2022-08-21T04:30:27;17.70;1.00
3794;DHT22;1912;51.358;12.282;2022-08-21T04:32:53;17.70;1.00
3794;DHT22;1912;51.358;12.282;2022-08-21T04:35:22;17.60;1.00
3794;DHT22;1912;51.358;12.282;2022-08-21T04:37:49;17.60;1.00
3794;DHT22;1912;51.358;12.282;2022-08-21T04:40:16;17.50;1.00
3794;DHT22;1912;51.358;12.282;2022-08-21T04:42:49;17.50;1.00
3794;DHT22;1912;51.358;12.282;2022-08-21T04:45:39;17.50;1.00
3794;DHT22;1912;51.358;12.282;2022-08-21T04:48:08;17.50;1.00
3794;DHT22;1912;51.358;12.282;2022-08-21T04:53:05;17.50;1.00
3794;DHT22;1912;51.358;12.282;2022-08-21T04:55:33;17.50;1.00
3794;DHT22;1912;51.358;12.282;2022-08-21T04:58:00;17.50;1.00
3794;DHT22;1912;51.358;12.282;2022-08-21T05:00:25;17.40;1.00
3794;DHT22;1912;51.358;12.282;2022-08-21T05:02:53;17.30;1.00
3794;DHT22;1912;51.358;12.282;2022-08-21T05:05:22;17.30;1.00
3794;DHT22;1912;51.358;12.282;2022-08-21T05:07:48;17.30;1.00
3794;DHT22;1912;51.358;12.282;2022-08-21T05:10:14;17.20;1.00
3794;DHT22;1912;51.358;12.282;2022-08-21T05:12:41;17.10;1.00
3794;DHT22;1912;51.358;12.282;2022-08-21T05:15:08;17.10;1.00
3794;DHT22;1912;51.358;12.282;2022-08-21T05:17:37;17.30;1.00
3794;DHT22;1912;51.358;12.282;2022-08-21T05:20:03;17.40;1.00
3794;DHT22;1912;51.358;12.282;2022-08-21T05:22:29;17.40;1.00
3794;DHT22;1912;51.358;12.282;2022-08-21T05:24:54;17.50;1.00
3794;DHT22;1912;51.358;12.282;2022-08-21T05:27:20;17.50;1.00
3794;DHT22;1912;51.358;12.282;2022-08-21T05:29:46;17.50;1.00
3794;DHT22;1912;51.358;12.282;2022-08-21T05:32:13;17.50;1.00
3794;DHT22;1912;51.358;12.282;2022-08-21T05:34:39;17.40;1.00
3794;DHT22;1912;51.358;12.282;2022-08-21T05:37:05;17.50;1.00
3794;DHT22;1912;51.358;12.282;2022-08-21T05:39:31;17.50;1.00
3794;DHT22;1912;51.358;12.282;2022-08-21T05:41:57;17.50;1.00
3794;DHT22;1912;51.358;12.282;2022-08-21T05:44:22;17.40;1.00
3794;DHT22;1912;51.358;12.282;2022-08-21T05:46:48;17.50;1.00
3794;DHT22;1912;51.358;12.282;2022-08-21T05:49:14;17.40;1.00
3794;DHT22;1912;51.358;12.282;2022-08-21T05:51:40;17.50;1.00
3794;DHT22;1912;51.358;12.282;2022-08-21T05:54:06;17.60;1.00
3794;DHT22;1912;51.358;12.282;2022-08-21T05:56:32;17.60;1.00
3794;DHT22;1912;51.358;12.282;2022-08-21T05:58:58;17.70;1.00
3794;DHT22;1912;51.358;12.282;2022-08-21T06:01:24;17.60;1.00
3794;DHT22;1912;51.358;12.282;2022-08-21T06:03:50;17.60;1.00
3794;DHT22;1912;51.358;12.282;2022-08-21T06:06:16;17.70;1.00
3794;DHT22;1912;51.358;12.282;2022-08-21T06:08:42;17.70;1.00
3794;DHT22;1912;51.358;12.282;2022-08-21T06:11:09;17.80;1.00
3794;DHT22;1912;51.358;12.282;2022-08-21T06:13:35;17.80;1.00
3794;DHT22;1912;51.358;12.282;2022-08-21T06:16:06;17.80;1.00
3794;DHT22;1912;51.358;12.282;2022-08-21T06:18:38;17.90;1.00
3794;DHT22;1912;51.358;12.282;2022-08-21T06:21:04;17.90;1.00
3794;DHT22;1912;51.358;12.282;2022-08-21T06:23:31;17.90;1.00
3794;DHT22;1912;51.358;12.282;2022-08-21T06:25:57;18.00;1.00
3794;DHT22;1912;51.358;12.282;2022-08-21T06:28:23;18.00;1.00
3794;DHT22;1912;51.358;12.282;2022-08-21T06:30:49;18.10;1.00
3794;DHT22;1912;51.358;12.282;2022-08-21T06:33:14;18.10;1.00
3794;DHT22;1912;51.358;12.282;2022-08-21T06:35:40;18.10;1.00
3794;DHT22;1912;51.358;12.282;2022-08-21T06:38:06;18.20;1.00
3794;DHT22;1912;51.358;12.282;2022-08-21T06:40:32;18.20;1.00
3794;DHT22;1912;51.358;12.282;2022-08-21T06:42:58;18.20;1.00
3794;DHT22;1912;51.358;12.282;2022-08-21T06:45:24;18.20;1.00
3794;DHT22;1912;51.358;12.282;2022-08-21T06:47:50;18.20;1.00
3794;DHT22;1912;51.358;12.282;2022-08-21T06:50:16;18.30;1.00
3794;DHT22;1912;51.358;12.282;2022-08-21T06:52:42;18.30;1.00
3794;DHT22;1912;51.358;12.282;2022-08-21T06:55:09;18.40;1.00
3794;DHT22;1912;51.358;12.282;2022-08-21T06:57:35;18.50;1.00
3794;DHT22;1912;51.358;12.282;2022-08-21T07:00:03;18.60;1.00
3794;DHT22;1912;51.358;12.282;2022-08-21T07:02:30;18.70;1.00
3794;DHT22;1912;51.358;12.282;2022-08-21T07:04:55;18.70;1.00
3794;DHT22;1912;51.358;12.282;2022-08-21T07:07:21;18.80;1.00
3794;DHT22;1912;51.358;12.282;2022-08-21T07:09:47;19.00;1.00
3794;DHT22;1912;51.358;12.282;2022-08-21T07:12:12;19.10;1.00
3794;DHT22;1912;51.358;12.282;2022-08-21T07:14:38;19.20;1.00
3794;DHT22;1912;51.358;12.282;2022-08-21T07:17:04;19.30;1.00
3794;DHT22;1912;51.358;12.282;2022-08-21T07:19:29;19.20;1.00
3794;DHT22;1912;51.358;12.282;2022-08-21T07:22:01;19.30;1.00
3794;DHT22;1912;51.358;12.282;2022-08-21T07:24:27;19.50;1.00
3794;DHT22;1912;51.358;12.282;2022-08-21T07:26:54;19.70;1.00
3794;DHT22;1912;51.358;12.282;2022-08-21T07:29:20;19.70;1.00
3794;DHT22;1912;51.358;12.282;2022-08-21T07:31:45;19.90;1.00
3794;DHT22;1912;51.358;12.282;2022-08-21T07:34:11;19.90;1.00
3794;DHT22;1912;51.358;12.282;2022-08-21T07:36:37;19.90;1.00
3794;DHT22;1912;51.358;12.282;2022-08-21T07:39:03;19.90;1.00
3794;DHT22;1912;51.358;12.282;2022-08-21T07:41:29;19.90;1.00
3794;DHT22;1912;51.358;12.282;2022-08-21T07:43:59;20.00;1.00
3794;DHT22;1912;51.358;12.282;2022-08-21T07:46:25;19.80;1.00
3794;DHT22;1912;51.358;12.282;2022-08-21T07:48:52;19.90;1.00
3794;DHT22;1912;51.358;12.282;2022-08-21T07:51:19;19.80;1.00
3794;DHT22;1912;51.358;12.282;2022-08-21T07:53:53;19.80;1.00
3794;DHT22;1912;51.358;12.282;2022-08-21T07:56:20;19.90;1.00
3794;DHT22;1912;51.358;12.282;2022-08-21T07:58:47;19.80;1.00
3794;DHT22;1912;51.358;12.282;2022-08-21T08:01:13;19.70;1.00
3794;DHT22;1912;51.358;12.282;2022-08-21T08:03:39;19.80;1.00
3794;DHT22;1912;51.358;12.282;2022-08-21T08:06:06;19.90;1.00
3794;DHT22;1912;51.358;12.282;2022-08-21T08:08:33;19.80;1.00
3794;DHT22;1912;51.358;12.282;2022-08-21T08:10:59;19.70;1.00
3794;DHT22;1912;51.358;12.282;2022-08-21T08:13:25;19.90;1.00
3794;DHT22;1912;51.358;12.282;2022-08-21T08:15:51;19.90;1.00
3794;DHT22;1912;51.358;12.282;2022-08-21T08:18:16;19.90;1.00
3794;DHT22;1912;51.358;12.282;2022-08-21T08:20:42;20.00;1.00
3794;DHT22;1912;51.358;12.282;2022-08-21T08:23:15;20.00;1.00
3794;DHT22;1912;51.358;12.282;2022-08-21T08:25:41;20.20;1.00
3794;DHT22;1912;51.358;12.282;2022-08-21T08:28:07;20.40;1.00
3794;DHT22;1912;51.358;12.282;2022-08-21T08:30:33;20.50;1.00
3794;DHT22;1912;51.358;12.282;2022-08-21T08:32:59;20.60;1.00
3794;DHT22;1912;51.358;12.282;2022-08-21T08:35:25;20.60;1.00
3794;DHT22;1912;51.358;12.282;2022-08-21T08:37:52;20.50;1.00
3794;DHT22;1912;51.358;12.282;2022-08-21T08:40:25;20.50;1.00
3794;DHT22;1912;51.358;12.282;2022-08-21T08:42:59;20.60;1.00
3794;DHT22;1912;51.358;12.282;2022-08-21T08:45:26;20.60;1.00
3794;DHT22;1912;51.358;12.282;2022-08-21T08:47:55;20.90;1.00
3794;DHT22;1912;51.358;12.282;2022-08-21T08:50:54;21.00;1.00
3794;DHT22;1912;51.358;12.282;2022-08-21T08:53:25;21.40;1.00
3794;DHT22;1912;51.358;12.282;2022-08-21T08:55:57;21.90;1.00
3794;DHT22;1912;51.358;12.282;2022-08-21T08:58:32;22.30;1.00
3794;DHT22;1912;51.358;12.282;2022-08-21T09:01:16;22.70;1.00
3794;DHT22;1912;51.358;12.282;2022-08-21T09:03:44;22.80;1.00
3794;DHT22;1912;51.358;12.282;2022-08-21T09:06:35;22.90;1.00
3794;DHT22;1912;51.358;12.282;2022-08-21T09:09:38;23.00;1.00
3794;DHT22;1912;51.358;12.282;2022-08-21T09:12:56;23.20;1.00
3794;DHT22;1912;51.358;12.282;2022-08-21T09:24:31;23.20;1.00
3794;DHT22;1912;51.358;12.282;2022-08-21T09:27:06;23.70;1.00
3794;DHT22;1912;51.358;12.282;2022-08-21T09:29:38;23.80;1.00
3794;DHT22;1912;51.358;12.282;2022-08-21T09:32:26;24.00;1.00
3794;DHT22;1912;51.358;12.282;2022-08-21T09:37:22;24.70;1.00
3794;DHT22;1912;51.358;12.282;2022-08-21T09:39:48;25.00;1.00
3794;DHT22;1912;51.358;12.282;2022-08-21T09:42:23;25.00;1.00
3794;DHT22;1912;51.358;12.282;2022-08-21T09:45:12;25.10;1.00
3794;DHT22;1912;51.358;12.282;2022-08-21T09:47:41;25.20;1.00
3794;DHT22;1912;51.358;12.282;2022-08-21T09:50:12;25.50;1.00
3794;DHT22;1912;51.358;12.282;2022-08-21T09:52:49;25.80;1.00
3794;DHT22;1912;51.358;12.282;2022-08-21T09:55:33;25.60;1.00
3794;DHT22;1912;51.358;12.282;2022-08-21T09:58:30;25.50;1.00
3794;DHT22;1912;51.358;12.282;2022-08-21T10:00:59;25.60;1.00
3794;DHT22;1912;51.358;12.282;2022-08-21T10:03:27;25.60;1.00
3794;DHT22;1912;51.358;12.282;2022-08-21T10:06:04;25.90;1.00
3794;DHT22;1912;51.358;12.282;2022-08-21T10:08:35;26.10;1.00
3794;DHT22;1912;51.358;12.282;2022-08-21T10:11:07;26.20;1.00
3794;DHT22;1912;51.358;12.282;2022-08-21T10:16:20;26.40;1.00
3794;DHT22;1912;51.358;12.282;2022-08-21T10:19:38;27.20;1.00
3794;DHT22;1912;51.358;12.282;2022-08-21T10:21:50;27.20;1.00
3794;DHT22;1912;51.358;12.282;2022-08-21T10:24:27;27.20;1.00
3794;DHT22;1912;51.358;12.282;2022-08-21T10:33:20;27.80;1.00
3794;DHT22;1912;51.358;12.282;2022-08-21T10:35:37;28.40;1.00
3794;DHT22;1912;51.358;12.282;2022-08-21T10:38:41;28.20;1.00
3794;DHT22;1912;51.358;12.282;2022-08-21T10:44:44;28.60;1.00
3794;DHT22;1912;51.358;12.282;2022-08-21T10:47:48;28.70;1.00
3794;DHT22;1912;51.358;12.282;2022-08-21T10:50:32;29.30;1.00
3794;DHT22;1912;51.358;12.282;2022-08-21T10:55:48;29.80;1.00
3794;DHT22;1912;51.358;12.282;2022-08-21T10:58:24;29.70;1.00
3794;DHT22;1912;51.358;12.282;2022-08-21T11:01:19;29.90;1.00
3794;DHT22;1912;51.358;12.282;2022-08-21T11:04:10;28.90;1.00
3794;DHT22;1912;51.358;12.282;2022-08-21T11:06:46;29.60;1.00
3794;DHT22;1912;51.358;12.282;2022-08-21T11:09:19;30.00;1.00
3794;DHT22;1912;51.358;12.282;2022-08-21T11:12:00;30.20;1.00
3794;DHT22;1912;51.358;12.282;2022-08-21T11:14:54;30.10;1.00
3794;DHT22;1912;51.358;12.282;2022-08-21T11:17:44;30.40;1.00
3794;DHT22;1912;51.358;12.282;2022-08-21T11:20:23;30.60;1.00
3794;DHT22;1912;51.358;12.282;2022-08-21T11:23:00;30.40;1.00
3794;DHT22;1912;51.358;12.282;2022-08-21T11:25:31;30.50;1.00
3794;DHT22;1912;51.358;12.282;2022-08-21T11:28:21;31.20;1.00
3794;DHT22;1912;51.358;12.282;2022-08-21T11:36:44;30.30;1.00
3794;DHT22;1912;51.358;12.282;2022-08-21T11:46:25;30.20;1.00
3794;DHT22;1912;51.358;12.282;2022-08-21T11:49:08;30.50;1.00
3794;DHT22;1912;51.358;12.282;2022-08-21T11:54:42;30.40;1.00
3794;DHT22;1912;51.358;12.282;2022-08-21T11:57:23;30.60;1.00
3794;DHT22;1912;51.358;12.282;2022-08-21T12:00:00;31.00;1.00
3794;DHT22;1912;51.358;12.282;2022-08-21T12:02:35;31.60;1.00
3794;DHT22;1912;51.358;12.282;2022-08-21T12:05:08;31.40;1.00
3794;DHT22;1912;51.358;12.282;2022-08-21T12:07:39;31.30;1.00
3794;DHT22;1912;51.358;12.282;2022-08-21T12:10:13;30.80;1.00
3794;DHT22;1912;51.358;12.282;2022-08-21T12:12:43;31.00;1.00
3794;DHT22;1912;51.358;12.282;2022-08-21T12:18:03;30.60;1.00
3794;DHT22;1912;51.358;12.282;2022-08-21T12:24:16;32.10;1.00
3794;DHT22;1912;51.358;12.282;2022-08-21T12:27:19;32.10;1.00
3794;DHT22;1912;51.358;12.282;2022-08-21T12:29:58;30.50;1.00
3794;DHT22;1912;51.358;12.282;2022-08-21T12:32:31;30.40;1.00
3794;DHT22;1912;51.358;12.282;2022-08-21T12:35:25;30.60;1.00
3794;DHT22;1912;51.358;12.282;2022-08-21T12:38:01;30.30;1.00
3794;DHT22;1912;51.358;12.282;2022-08-21T12:40:55;29.50;1.00
3794;DHT22;1912;51.358;12.282;2022-08-21T12:43:30;29.50;1.00
3794;DHT22;1912;51.358;12.282;2022-08-21T12:45:58;29.90;1.00
3794;DHT22;1912;51.358;12.282;2022-08-21T12:51:13;29.40;1.00
3794;DHT22;1912;51.358;12.282;2022-08-21T12:53:52;29.00;1.00
3794;DHT22;1912;51.358;12.282;2022-08-21T12:56:24;29.00;1.00
3794;DHT22;1912;51.358;12.282;2022-08-21T12:59:05;28.40;1.00
3794;DHT22;1912;51.358;12.282;2022-08-21T13:01:34;28.00;1.00
3794;DHT22;1912;51.358;12.282;2022-08-21T13:04:08;27.60;1.00
3794;DHT22;1912;51.358;12.282;2022-08-21T13:06:41;27.60;1.00
3794;DHT22;1912;51.358;12.282;2022-08-21T13:09:14;27.70;1.00
3794;DHT22;1912;51.358;12.282;2022-08-21T13:11:42;28.70;1.00
3794;DHT22;1912;51.358;12.282;2022-08-21T13:14:31;29.60;1.00
3794;DHT22;1912;51.358;12.282;2022-08-21T13:17:01;30.60;1.00
3794;DHT22;1912;51.358;12.282;2022-08-21T13:19:30;31.10;1.00
3794;DHT22;1912;51.358;12.282;2022-08-21T13:21:57;31.20;1.00
3794;DHT22;1912;51.358;12.282;2022-08-21T13:24:26;31.10;1.00
3794;DHT22;1912;51.358;12.282;2022-08-21T13:26:52;31.10;1.00
3794;DHT22;1912;51.358;12.282;2022-08-21T13:29:22;31.40;1.00
3794;DHT22;1912;51.358;12.282;2022-08-21T13:31:53;30.60;1.00
3794;DHT22;1912;51.358;12.282;2022-08-21T13:34:22;31.00;1.00
3794;DHT22;1912;51.358;12.282;2022-08-21T13:36:54;31.00;1.00
3794;DHT22;1912;51.358;12.282;2022-08-21T13:39:23;31.20;1.00
3794;DHT22;1912;51.358;12.282;2022-08-21T13:41:56;30.90;1.00
3794;DHT22;1912;51.358;12.282;2022-08-21T13:46:56;31.60;1.00
3794;DHT22;1912;51.358;12.282;2022-08-21T13:49:36;31.80;1.00
3794;DHT22;1912;51.358;12.282;2022-08-21T13:52:04;31.40;1.00
3794;DHT22;1912;51.358;12.282;2022-08-21T13:54:38;30.70;1.00
3794;DHT22;1912;51.358;12.282;2022-08-21T13:57:19;30.10;1.00
3794;DHT22;1912;51.358;12.282;2022-08-21T13:59:50;29.50;1.00
3794;DHT22;1912;51.358;12.282;2022-08-21T14:02:20;29.80;1.00
3794;DHT22;1912;51.358;12.282;2022-08-21T14:04:54;29.30;1.00
3794;DHT22;1912;51.358;12.282;2022-08-21T14:07:29;28.70;1.00
3794;DHT22;1912;51.358;12.282;2022-08-21T14:10:11;28.40;1.00
3794;DHT22;1912;51.358;12.282;2022-08-21T14:12:50;28.80;1.00
3794;DHT22;1912;51.358;12.282;2022-08-21T14:15:22;28.60;1.00
3794;DHT22;1912;51.358;12.282;2022-08-21T14:17:51;28.60;1.00
3794;DHT22;1912;51.358;12.282;2022-08-21T14:20:32;28.80;1.00
3794;DHT22;1912;51.358;12.282;2022-08-21T14:22:59;28.80;1.00
3794;DHT22;1912;51.358;12.282;2022-08-21T14:28:26;28.70;1.00
3794;DHT22;1912;51.358;12.282;2022-08-21T14:30:54;29.20;1.00
3794;DHT22;1912;51.358;12.282;2022-08-21T14:33:31;29.40;1.00
3794;DHT22;1912;51.358;12.282;2022-08-21T14:35:58;29.10;1.00
3794;DHT22;1912;51.358;12.282;2022-08-21T14:38:26;29.20;1.00
3794;DHT22;1912;51.358;12.282;2022-08-21T14:40:56;29.40;1.00
3794;DHT22;1912;51.358;12.282;2022-08-21T14:43:26;29.40;1.00
3794;DHT22;1912;51.358;12.282;2022-08-21T14:45:53;29.60;1.00
3794;DHT22;1912;51.358;12.282;2022-08-21T14:48:19;29.70;1.00
3794;DHT22;1912;51.358;12.282;2022-08-21T14:50:45;29.00;1.00
3794;DHT22;1912;51.358;12.282;2022-08-21T14:53:11;28.80;1.00
3794;DHT22;1912;51.358;12.282;2022-08-21T14:55:38;28.90;1.00
3794;DHT22;1912;51.358;12.282;2022-08-21T14:58:23;29.20;1.00
3794;DHT22;1912;51.358;12.282;2022-08-21T15:00:51;28.90;1.00
3794;DHT22;1912;51.358;12.282;2022-08-21T15:03:18;28.80;1.00
3794;DHT22;1912;51.358;12.282;2022-08-21T15:05:44;29.00;1.00
3794;DHT22;1912;51.358;12.282;2022-08-21T15:08:10;29.20;1.00
3794;DHT22;1912;51.358;12.282;2022-08-21T15:10:36;29.20;1.00
3794;DHT22;1912;51.358;12.282;2022-08-21T15:13:02;29.80;1.00
3794;DHT22;1912;51.358;12.282;2022-08-21T15:15:40;29.50;1.00
3794;DHT22;1912;51.358;12.282;2022-08-21T15:18:08;29.80;1.00
3794;DHT22;1912;51.358;12.282;2022-08-21T15:20:34;29.70;1.00
3794;DHT22;1912;51.358;12.282;2022-08-21T15:23:01;30.10;1.00
3794;DHT22;1912;51.358;12.282;2022-08-21T15:25:27;30.30;1.00
3794;DHT22;1912;51.358;12.282;2022-08-21T15:27:53;30.40;1.00
3794;DHT22;1912;51.358;12.282;2022-08-21T15:30:18;30.40;1.00
3794;DHT22;1912;51.358;12.282;2022-08-21T15:32:44;30.30;1.00
3794;DHT22;1912;51.358;12.282;2022-08-21T15:35:10;30.40;1.00
3794;DHT22;1912;51.358;12.282;2022-08-21T15:37:35;30.00;1.00
3794;DHT22;1912;51.358;12.282;2022-08-21T15:40:02;29.70;1.00
3794;DHT22;1912;51.358;12.282;2022-08-21T15:42:29;29.60;1.00
3794;DHT22;1912;51.358;12.282;2022-08-21T15:44:55;29.10;1.00
3794;DHT22;1912;51.358;12.282;2022-08-21T15:47:27;28.90;1.00
3794;DHT22;1912;51.358;12.282;2022-08-21T15:49:54;28.90;1.00
3794;DHT22;1912;51.358;12.282;2022-08-21T15:52:21;29.00;1.00
3794;DHT22;1912;51.358;12.282;2022-08-21T15:54:47;29.40;1.00
3794;DHT22;1912;51.358;12.282;2022-08-21T15:57:15;29.80;1.00
3794;DHT22;1912;51.358;12.282;2022-08-21T15:59:49;30.00;1.00
3794;DHT22;1912;51.358;12.282;2022-08-21T16:02:20;29.80;1.00
3794;DHT22;1912;51.358;12.282;2022-08-21T16:04:47;30.00;1.00
3794;DHT22;1912;51.358;12.282;2022-08-21T16:07:13;29.80;1.00
3794;DHT22;1912;51.358;12.282;2022-08-21T16:09:39;29.80;1.00
3794;DHT22;1912;51.358;12.282;2022-08-21T16:12:05;29.70;1.00
3794;DHT22;1912;51.358;12.282;2022-08-21T16:14:32;29.70;1.00
3794;DHT22;1912;51.358;12.282;2022-08-21T16:16:59;29.60;1.00
3794;DHT22;1912;51.358;12.282;2022-08-21T16:19:27;29.80;1.00
3794;DHT22;1912;51.358;12.282;2022-08-21T16:21:53;29.70;1.00
3794;DHT22;1912;51.358;12.282;2022-08-21T16:24:19;29.90;1.00
3794;DHT22;1912;51.358;12.282;2022-08-21T16:26:45;30.10;1.00
3794;DHT22;1912;51.358;12.282;2022-08-21T16:29:11;30.30;1.00
3794;DHT22;1912;51.358;12.282;2022-08-21T16:31:36;30.20;1.00
3794;DHT22;1912;51.358;12.282;2022-08-21T16:34:02;30.20;1.00
3794;DHT22;1912;51.358;12.282;2022-08-21T16:36:28;30.20;1.00
3794;DHT22;1912;51.358;12.282;2022-08-21T16:38:55;30.10;1.00
3794;DHT22;1912;51.358;12.282;2022-08-21T16:41:23;30.20;1.00
3794;DHT22;1912;51.358;12.282;2022-08-21T16:43:50;30.40;1.00
3794;DHT22;1912;51.358;12.282;2022-08-21T16:46:17;30.00;1.00
3794;DHT22;1912;51.358;12.282;2022-08-21T16:48:43;29.80;1.00
3794;DHT22;1912;51.358;12.282;2022-08-21T16:51:10;30.30;1.00
3794;DHT22;1912;51.358;12.282;2022-08-21T16:53:37;30.30;1.00
3794;DHT22;1912;51.358;12.282;2022-08-21T16:56:03;30.20;1.00
3794;DHT22;1912;51.358;12.282;2022-08-21T16:58:32;30.10;1.00
3794;DHT22;1912;51.358;12.282;2022-08-21T17:00:59;30.40;1.00
3794;DHT22;1912;51.358;12.282;2022-08-21T17:03:35;30.20;1.00
3794;DHT22;1912;51.358;12.282;2022-08-21T17:06:04;30.20;1.00
3794;DHT22;1912;51.358;12.282;2022-08-21T17:08:30;30.10;1.00
3794;DHT22;1912;51.358;12.282;2022-08-21T17:10:57;29.80;1.00
3794;DHT22;1912;51.358;12.282;2022-08-21T17:13:24;29.60;1.00
3794;DHT22;1912;51.358;12.282;2022-08-21T17:15:51;29.50;1.00
3794;DHT22;1912;51.358;12.282;2022-08-21T17:18:19;29.60;1.00
3794;DHT22;1912;51.358;12.282;2022-08-21T17:20:47;29.40;1.00
3794;DHT22;1912;51.358;12.282;2022-08-21T17:23:15;29.10;1.00